ブエノスアイレス/エセイサ の空港の天気 - METARとTAF

エセイサ国際空港 ( SAEZ / EZE ) - アルゼンチン ブエノスアイレス州、Ezeiza
飛行場実況気象(Metar)
観測時間11/15 12:00 ART (11/15 15:00 UTC)
風向・風速北北西 3m/s
視程10km以上
天気現象
なし
気温27℃
湿度37%
気圧1013hPa
METARSAEZ 151500Z 33006KT 290V010 CAVOK 27/11 Q1013 NOSIG
過去の天気等 Google飛行場航空写真 Wunderground天気予報

過去48時間のMETAR

飛行場予報(TAF)
発表時間: 11/15 08:00 ART (11/15 11:00 UTC)
予報対象時間: 15日9時 ART ~ 16日9時 ART
風向・風速北 3m/s
視程10km以上
なし
15日14時 ART ~ 15日18時 ART に一時的に
視程10km以上
全天の4割程度の雲 雲底高度 1370m
15日16時 ART ~ 15日18時 ART に徐々に
風向・風速北東 5m/s
TAF SAEZ 151100Z 1512/1612 01005KT CAVOK TX29/1518Z TN19/1609Z
TEMPO 1517/1521 9999 SCT045
BECMG 1519/1521 05010KT